Svinoy — V7RM5 — position and weather

sailwx.info

Track history (hours):
 
Tides and Currents Weather Stations Pressure Air Temp Water Temp Dewpoint Dewpoint Depression Visibility Wind Speed Wind Dir Waves Ship Positions

Svinoy

Last reported at 2017-Apr-21 06:19 UTC. Time now 2017-Apr-25 01:00 UTC.
Position N 36°23' E 035°40'.

Length 190 m; draft 12.1 m.

Type: Cargo ship. MMSI: 538003541.

Date/timePositionNaut miles runAvg speedWind from/ knotsBaromVisibWave heightAir tempDewpointWater temp
2017-Apr-21 06:19N 36°23' E 035°40'  
2017-Apr-17 13:48N 36°17' E 014°53'412.1
2017-Apr-17 13:30N 36°18' E 014°48'611.8
2017-Apr-17 13:00N 36°18' E 014°41'611.9
2017-Apr-17 12:30N 36°19' E 014°33'612.0
2017-Apr-17 12:00N 36°19' E 014°26'611.7
2017-Apr-17 11:30N 36°20' E 014°19'611.8
2017-Apr-17 11:00N 36°21' E 014°12'612.0
2017-Apr-17 10:30N 36°23' E 014°05'612.0
2017-Apr-17 10:00N 36°26' E 013°58'611.9
2017-Apr-17 09:30N 36°28' E 013°51'612.0
2017-Apr-17 08:59N 36°30' E 013°44'611.9
2017-Apr-17 08:30N 36°32' E 013°37'712.1
2017-Apr-17 07:57N 36°35' E 013°30'42011.7
2017-Apr-15 19:58N 37°12' E 004°47'611.7
2017-Apr-15 19:30N 37°12' E 004°40'611.9
2017-Apr-15 19:00N 37°11' E 004°32'4012.0
2017-Apr-15 15:39N 37°08' E 003°42'512.3
2017-Apr-15 15:17N 37°08' E 003°36'512.3
2017-Apr-15 14:52N 37°07' E 003°30'1112.4
2017-Apr-15 13:59N 37°06' E 003°16'612.1
2017-Apr-15 13:29N 37°05' E 003°09'611.8
2017-Apr-15 13:00N 37°04' E 003°01'711.6
2017-Apr-15 12:23N 37°03' E 002°52'711.7
2017-Apr-15 11:46N 37°03' E 002°43'312.0
2017-Apr-15 11:30N 37°02' E 002°40'611.9
2017-Apr-15 11:00N 37°01' E 002°32'911.5
2017-Apr-15 10:13N 36°58' E 002°21'2211.3
2017-Apr-15 08:15N 36°54' E 001°54'311.4
2017-Apr-15 08:00N 36°54' E 001°51'611.3
2017-Apr-15 07:30N 36°53' E 001°44'611.3
2017-Apr-15 07:00N 36°52' E 001°37'611.9
2017-Apr-15 06:30N 36°50' E 001°29'611.9
2017-Apr-15 06:00N 36°49' E 001°22'1112.0
2017-Apr-15 05:03N 36°47' E 001°08'212.2
2017-Apr-15 04:53N 36°46' E 001°06'512.5
2017-Apr-15 04:30N 36°45' E 001°00'612.5
2017-Apr-15 04:00N 36°44' E 000°52'612.5
2017-Apr-15 03:30N 36°43' E 000°45'712.4
2017-Apr-15 02:58N 36°42' E 000°37'712.3
2017-Apr-15 02:27N 36°41' E 000°29'512.2
2017-Apr-15 02:00N 36°40' E 000°22'1111.8
2017-Apr-15 01:04N 36°38' E 000°09'111.9
2017-Apr-15 01:00N 36°38' E 000°08'711.9
2017-Apr-15 00:24N 36°37' W 000°01'1312.0
2017-Apr-14 23:20N 36°35' W 000°17'1212.1
2017-Apr-14 22:22N 36°33' W 000°31'412.1
2017-Apr-14 22:00N 36°33' W 000°37'1711.9
2017-Apr-14 20:35N 36°30' W 000°58'211.6
2017-Apr-14 20:26N 36°30' W 000°60'19811.9
2017-Apr-14 03:51N 36°01' W 005°02'514.3
2017-Apr-14 03:29N 35°60' W 005°09'714.4
2017-Apr-14 03:00N 35°59' W 005°17'713.8
2017-Apr-14 02:30N 35°58' W 005°26'613.0
2017-Apr-14 02:00N 35°56' W 005°33'611.8
2017-Apr-14 01:30N 35°55' W 005°41'510.7
2017-Apr-14 01:00N 35°55' W 005°47'611.0
2017-Apr-14 00:27N 35°55' W 005°55'7712.0
2017-Apr-13 18:01N 35°53' W 007°30'012.0
2017-Apr-13 17:59N 35°53' W 007°30'1012.2
2017-Apr-13 17:10N 35°53' W 007°42'4911.9
2017-Apr-13 13:01N 35°52' W 008°43'  
Track history (hours):
 
Tides and Currents Weather Stations Pressure Air Temp Water Temp Dewpoint Dewpoint Depression Visibility Wind Speed Wind Dir Waves Ship Positions

Svinoy

Last reported at 2017-Apr-21 06:19 UTC. Time now 2017-Apr-25 01:00 UTC.
Position N 36°23' E 035°40'.

Length 190 m; draft 12.1 m.

Type: Cargo ship. MMSI: 538003541.

Date/timePositionNaut miles runAvg speedWind from/ knotsBaromVisibWave heightAir tempDewpointWater temp
2017-Apr-21 06:19N 36°23' E 035°40'  
2017-Apr-17 13:48N 36°17' E 014°53'412.1
2017-Apr-17 13:30N 36°18' E 014°48'611.8
2017-Apr-17 13:00N 36°18' E 014°41'611.9
2017-Apr-17 12:30N 36°19' E 014°33'612.0
2017-Apr-17 12:00N 36°19' E 014°26'611.7
2017-Apr-17 11:30N 36°20' E 014°19'611.8
2017-Apr-17 11:00N 36°21' E 014°12'612.0
2017-Apr-17 10:30N 36°23' E 014°05'612.0
2017-Apr-17 10:00N 36°26' E 013°58'611.9
2017-Apr-17 09:30N 36°28' E 013°51'612.0
2017-Apr-17 08:59N 36°30' E 013°44'611.9
2017-Apr-17 08:30N 36°32' E 013°37'712.1
2017-Apr-17 07:57N 36°35' E 013°30'42011.7
2017-Apr-15 19:58N 37°12' E 004°47'611.7
2017-Apr-15 19:30N 37°12' E 004°40'611.9
2017-Apr-15 19:00N 37°11' E 004°32'4012.0
2017-Apr-15 15:39N 37°08' E 003°42'512.3
2017-Apr-15 15:17N 37°08' E 003°36'512.3
2017-Apr-15 14:52N 37°07' E 003°30'1112.4
2017-Apr-15 13:59N 37°06' E 003°16'612.1
2017-Apr-15 13:29N 37°05' E 003°09'611.8
2017-Apr-15 13:00N 37°04' E 003°01'711.6
2017-Apr-15 12:23N 37°03' E 002°52'711.7
2017-Apr-15 11:46N 37°03' E 002°43'312.0
2017-Apr-15 11:30N 37°02' E 002°40'611.9
2017-Apr-15 11:00N 37°01' E 002°32'911.5
2017-Apr-15 10:13N 36°58' E 002°21'2211.3
2017-Apr-15 08:15N 36°54' E 001°54'311.4
2017-Apr-15 08:00N 36°54' E 001°51'611.3
2017-Apr-15 07:30N 36°53' E 001°44'611.3
2017-Apr-15 07:00N 36°52' E 001°37'611.9
2017-Apr-15 06:30N 36°50' E 001°29'611.9
2017-Apr-15 06:00N 36°49' E 001°22'1112.0
2017-Apr-15 05:03N 36°47' E 001°08'212.2
2017-Apr-15 04:53N 36°46' E 001°06'512.5
2017-Apr-15 04:30N 36°45' E 001°00'612.5
2017-Apr-15 04:00N 36°44' E 000°52'612.5
2017-Apr-15 03:30N 36°43' E 000°45'712.4
2017-Apr-15 02:58N 36°42' E 000°37'712.3
2017-Apr-15 02:27N 36°41' E 000°29'512.2
2017-Apr-15 02:00N 36°40' E 000°22'1111.8
2017-Apr-15 01:04N 36°38' E 000°09'111.9
2017-Apr-15 01:00N 36°38' E 000°08'711.9
2017-Apr-15 00:24N 36°37' W 000°01'1312.0
2017-Apr-14 23:20N 36°35' W 000°17'1212.1
2017-Apr-14 22:22N 36°33' W 000°31'412.1
2017-Apr-14 22:00N 36°33' W 000°37'1711.9
2017-Apr-14 20:35N 36°30' W 000°58'211.6
2017-Apr-14 20:26N 36°30' W 000°60'19811.9
2017-Apr-14 03:51N 36°01' W 005°02'514.3
2017-Apr-14 03:29N 35°60' W 005°09'714.4
2017-Apr-14 03:00N 35°59' W 005°17'713.8
2017-Apr-14 02:30N 35°58' W 005°26'613.0
2017-Apr-14 02:00N 35°56' W 005°33'611.8
2017-Apr-14 01:30N 35°55' W 005°41'510.7
2017-Apr-14 01:00N 35°55' W 005°47'611.0
2017-Apr-14 00:27N 35°55' W 005°55'7712.0
2017-Apr-13 18:01N 35°53' W 007°30'012.0
2017-Apr-13 17:59N 35°53' W 007°30'1012.2
2017-Apr-13 17:10N 35°53' W 007°42'4911.9
2017-Apr-13 13:01N 35°52' W 008°43'  

Dump ship's entire track history